createdAt,value
2023-01-05T14:01:41.552Z,76.80
2023-01-05T14:06:08.789Z,77.36
2023-01-05T14:16:37.522Z,77.58
2023-01-05T14:23:01.640Z,77.86
2023-01-05T14:30:49.703Z,77.30
2023-01-05T14:42:32.183Z,78.25
2023-01-05T14:52:04.114Z,78.39
2023-01-05T14:54:43.000Z,78.72
2023-01-05T14:57:33.889Z,77.66
2023-01-05T15:00:50.249Z,77.70
2023-01-05T15:03:31.250Z,78.61
2023-01-05T15:06:30.937Z,78.72
2023-01-05T15:13:13.055Z,78.59
2023-01-05T15:19:41.393Z,78.70
2023-01-05T15:22:54.637Z,78.50
2023-01-05T15:26:11.292Z,79.13
2023-01-05T15:29:32.255Z,78.89
2023-01-05T15:32:20.875Z,79.40
2023-01-05T15:35:06.263Z,79.35
2023-01-05T15:37:49.107Z,79.01
2023-01-05T15:40:20.625Z,78.34
2023-01-05T15:42:56.164Z,78.68
2023-01-05T15:45:46.637Z,78.65
2023-01-05T15:51:49.974Z,75.43
2023-01-05T15:54:30.730Z,77.53
2023-01-05T15:57:02.846Z,77.33
2023-01-05T15:59:49.147Z,77.10
2023-01-05T16:02:51.883Z,76.33
2023-01-05T16:05:22.710Z,76.59
2023-01-05T16:07:58.577Z,77.55
2023-01-05T16:10:47.268Z,77.49
2023-01-05T16:13:43.539Z,77.13
2023-01-05T16:16:51.884Z,77.21
2023-01-05T16:19:58.184Z,77.88
2023-01-05T16:22:36.823Z,77.27
2023-01-05T16:25:28.199Z,76.82
2023-01-05T16:28:03.461Z,76.91
2023-01-05T16:30:46.042Z,76.67
2023-01-05T16:33:36.216Z,77.30
2023-01-05T16:36:23.194Z,76.79
2023-01-05T16:38:56.457Z,77.25
2023-01-05T16:41:37.302Z,76.93
2023-01-05T16:44:34.527Z,76.76
2023-01-05T16:47:15.880Z,76.99
2023-01-05T16:58:32.903Z,76.40
2023-01-05T17:01:37.485Z,75.65
2023-01-05T17:04:22.614Z,76.21
2023-01-05T17:07:04.295Z,76.58
2023-01-05T17:09:59.415Z,78.08
2023-01-05T17:13:02.611Z,78.20
2023-01-05T17:15:36.865Z,78.05
2023-01-05T17:21:17.479Z,78.51
2023-01-05T17:24:03.713Z,78.64
2023-01-05T17:26:39.200Z,78.01
2023-01-05T17:37:02.604Z,77.91
2023-01-05T17:47:10.867Z,76.86
2023-01-05T17:49:49.710Z,76.54
2023-01-05T17:52:26.634Z,76.59
2023-01-05T17:54:59.292Z,75.93
2023-01-05T17:57:34.438Z,76.04
2023-01-05T18:00:06.385Z,76.15
2023-01-05T18:03:22.674Z,75.26
2023-01-05T18:06:15.503Z,76.28
2023-01-05T18:09:09.795Z,73.81
2023-01-05T18:12:06.758Z,74.79
2023-01-05T18:15:17.664Z,75.37
2023-01-05T18:18:06.857Z,76.72
2023-01-05T18:20:45.666Z,76.18
2023-01-05T18:23:56.644Z,75.79
2023-01-05T18:26:45.137Z,75.91
2023-01-05T18:29:18.160Z,76.61
2023-01-05T18:31:55.472Z,77.20
2023-01-05T18:34:27.088Z,75.55
2023-01-05T18:37:43.311Z,76.47
2023-01-05T18:40:30.484Z,76.46
2023-01-05T18:43:06.249Z,76.90
2023-01-05T18:45:43.180Z,76.73
2023-01-05T18:48:16.056Z,76.28
2023-01-05T18:51:34.080Z,75.54
2023-01-05T18:54:48.163Z,76.17
2023-01-05T18:58:52.773Z,75.73
2023-01-05T19:06:37.038Z,75.75
2023-01-05T19:44:46.929Z,75.35
2023-01-05T19:47:37.757Z,74.48
2023-01-05T19:50:31.789Z,75.37
2023-01-05T20:10:32.145Z,75.13
2023-01-05T20:13:21.470Z,74.66
2023-01-05T20:16:12.977Z,74.71
2023-01-05T20:32:02.296Z,73.94
2023-01-05T20:34:48.206Z,74.66
2023-01-05T20:37:26.486Z,74.71
2023-01-05T20:40:32.081Z,74.28
2023-01-05T20:43:00.773Z,73.49
2023-01-05T20:46:03.093Z,72.88
2023-01-05T20:48:31.362Z,72.75
2023-01-05T20:52:16.139Z,72.28
2023-01-05T20:55:26.546Z,72.65
2023-01-05T20:57:56.849Z,73.40
2023-01-05T21:01:30.367Z,73.30
2023-01-05T21:05:46.921Z,73.41
2023-01-05T21:08:28.800Z,74.08
2023-01-05T21:11:07.523Z,73.56
2023-01-05T21:14:05.607Z,73.72
2023-01-05T21:17:14.611Z,74.57
2023-01-05T21:19:53.394Z,72.75
2023-01-05T21:22:22.971Z,73.33
2023-01-05T21:24:50.723Z,73.30
2023-01-05T21:27:19.797Z,74.26
2023-01-05T21:29:49.042Z,73.32
2023-01-05T21:32:26.392Z,73.40
2023-01-05T22:21:35.197Z,71.16
2023-01-05T22:37:54.178Z,70.93
